Time;durP1;ratioP1;P1;durP2;ratioP2;P2;SDS_P1;SDS_P2;PMS_P1;PMS_P2;Temp;Humidity;BMP_temperature;BMP_pressure;BME280_temperature;BME280_humidity;BME280_pressure;Samples;Min_cycle;Max_cycle;Signal;HPM_P1;HPM_P2
2022/04/19 00:00:16;;;;;;;30.80;13.73;;;179.50;1996.80;;;;;;5053690;28;20028;-77
2022/04/19 00:02:41;;;;;;;30.50;14.40;;;179.50;1996.80;;;;;;5052035;28;20040;-77
2022/04/19 00:05:09;;;;;;;;;;;179.60;1996.80;;;;;;5049674;28;20462;-78
2022/04/19 00:07:37;;;;;;;;;;;179.60;1996.80;;;;;;5042449;28;19999;-77
2022/04/19 00:10:06;;;;;;;30.23;13.85;;;179.50;1971.20;;;;;;5052157;28;20001;-77
2022/04/19 00:12:32;;;;;;;27.20;13.73;;;179.50;1996.80;;;;;;5052329;28;20144;-77
2022/04/19 00:14:58;;;;;;;29.00;14.07;;;179.60;1971.20;;;;;;5044661;28;20029;-77
2022/04/19 00:17:24;;;;;;;30.15;13.50;;;179.40;1996.80;;;;;;5034852;28;20026;-78
2022/04/19 00:19:50;;;;;;;;;;;179.50;1996.80;;;;;;5053863;28;20055;-77
2022/04/19 00:22:17;;;;;;;30.85;13.07;;;179.40;1996.80;;;;;;5052136;28;19904;-77
2022/04/19 00:24:43;;;;;;;26.58;13.32;;;179.40;1996.80;;;;;;5051936;28;20025;-77
2022/04/19 00:27:09;;;;;;;;;;;179.20;2022.40;;;;;;5051878;28;20174;-77
2022/04/19 00:29:34;;;;;;;23.60;13.68;;;179.30;2022.40;;;;;;5051617;28;19915;-77
2022/04/19 00:32:01;;;;;;;;;;;179.20;2048.00;;;;;;5053121;28;20100;-77
2022/04/19 00:34:27;;;;;;;31.20;14.25;;;179.20;2048.00;;;;;;5051333;28;19970;-77
2022/04/19 00:36:52;;;;;;;;;;;179.20;2048.00;;;;;;5053026;28;20468;-77
2022/04/19 00:39:18;;;;;;;27.63;13.80;;;154.50;2048.00;;;;;;5052977;28;20325;-77
2022/04/19 00:41:44;;;;;;;;;;;154.50;2048.00;;;;;;5053060;28;20013;-77
2022/04/19 00:44:09;;;;;;;30.77;13.65;;;154.50;2048.00;;;;;;5037764;28;19912;-77
2022/04/19 00:46:35;;;;;;;;;;;154.50;2048.00;;;;;;5051277;28;20021;-77
2022/04/19 00:49:00;;;;;;;34.25;15.50;;;154.50;2048.00;;;;;;5052763;28;19905;-76
2022/04/19 00:51:26;;;;;;;;;;;154.50;2048.00;;;;;;5052010;28;20044;-78
2022/04/19 00:53:52;;;;;;;33.45;14.23;;;154.40;2073.60;;;;;;5051163;28;19911;-77
2022/04/19 00:56:18;;;;;;;;;;;154.40;2073.60;;;;;;5051713;28;20025;-77
2022/04/19 00:58:44;;;;;;;27.33;14.40;;;154.30;2099.20;;;;;;5050682;28;20345;-77
2022/04/19 01:01:10;;;;;;;;;;;154.30;2099.20;;;;;;5053132;28;20021;-80
2022/04/19 01:03:37;;;;;;;27.73;14.90;;;154.30;2099.20;;;;;;5052790;28;19904;-77
2022/04/19 01:06:04;;;;;;;34.17;16.35;;;154.30;2099.20;;;;;;5051299;28;20029;-77
2022/04/19 01:08:30;;;;;;;28.20;14.95;;;154.30;2099.20;;;;;;5050962;28;20041;-78
2022/04/19 01:13:17;;;;;;;;;;;154.40;2099.20;;;;;;5051444;28;20031;-77
2022/04/19 01:13:42;;;;;;;26.95;14.05;;;154.40;2099.20;;;;;;5050939;28;20368;-77
2022/04/19 01:16:08;;;;;;;34.53;15.27;;;154.20;2099.20;;;;;;5050999;28;20057;-77
2022/04/19 01:18:35;;;;;;;33.05;16.88;;;154.20;2124.80;;;;;;5051067;28;20020;-77
2022/04/19 01:21:01;;;;;;;31.52;15.98;;;154.20;2150.40;;;;;;5050950;28;20108;-77
2022/04/19 01:23:28;;;;;;;;;;;154.30;2124.80;;;;;;5052692;28;20515;-76
2022/04/19 01:25:54;;;;;;;22.83;11.23;;;154.30;2124.80;;;;;;5048012;28;19913;-77
2022/04/19 01:28:20;;;;;;;;;;;154.30;2124.80;;;;;;5052529;28;20489;-77
2022/04/19 01:30:52;;;;;;;32.95;15.48;;;154.40;2124.80;;;;;;5052025;28;19924;-77
2022/04/19 01:33:18;;;;;;;28.17;15.18;;;154.30;2124.80;;;;;;5050831;28;20465;-77
2022/04/19 01:35:44;;;;;;;;;;;154.30;2124.80;;;;;;5050837;28;20025;-77
2022/04/19 01:38:09;;;;;;;30.08;15.38;;;154.40;2124.80;;;;;;5050708;28;19905;-77
2022/04/19 01:40:35;;;;;;;;;;;154.30;2124.80;;;;;;5052425;28;20013;-77
2022/04/19 01:43:03;;;;;;;32.03;14.73;;;154.30;2150.40;;;;;;5050245;28;19915;-77
2022/04/19 01:45:31;;;;;;;34.05;17.05;;;154.30;2150.40;;;;;;5050624;28;20025;-77
2022/04/19 01:47:58;;;;;;;32.03;14.35;;;154.30;2124.80;;;;;;5050414;28;20063;-78
2022/04/19 01:50:28;;;;;;;31.02;14.93;;;154.20;2150.40;;;;;;5052016;28;20017;-78
2022/04/19 01:53:00;;;;;;;30.20;14.75;;;154.30;2124.80;;;;;;5050561;28;20469;-77
2022/04/19 01:55:26;;;;;;;39.92;16.95;;;154.20;2124.80;;;;;;5041975;28;20021;-77
2022/04/19 01:57:52;;;;;;;;;;;154.20;2150.40;;;;;;5050680;28;20037;-77
2022/04/19 02:00:19;;;;;;;25.80;14.48;;;154.10;2150.40;;;;;;5051754;28;19947;-77
2022/04/19 02:02:46;;;;;;;33.03;16.33;;;154.20;2150.40;;;;;;5050502;28;20017;-77
2022/04/19 02:05:15;;;;;;;33.20;15.45;;;154.20;2150.40;;;;;;5053189;28;20021;-77
2022/04/19 02:07:43;;;;;;;27.90;14.32;;;154.10;2150.40;;;;;;5054658;28;20035;-77
2022/04/19 02:10:11;;;;;;;31.13;16.90;;;154.10;2150.40;;;;;;5054522;28;20017;-77
2022/04/19 02:12:41;;;;;;;28.17;15.43;;;154.20;2124.80;;;;;;5052302;28;20063;-77
2022/04/19 02:15:07;;;;;;;26.48;15.35;;;154.20;2124.80;;;;;;5054385;28;20017;-77
2022/04/19 02:17:33;;;;;;;31.90;14.63;;;154.10;2124.80;;;;;;5053918;28;20392;-77
2022/04/19 02:19:59;;;;;;;;;;;154.20;2124.80;;;;;;5054883;28;20017;-77
2022/04/19 02:22:27;;;;;;;22.38;13.38;;;154.20;2124.80;;;;;;5054215;28;19911;-78
2022/04/19 02:24:53;;;;;;;31.83;16.17;;;154.10;2124.80;;;;;;5054061;28;20025;-76
2022/04/19 02:27:19;;;;;;;30.55;16.20;;;153.90;2150.40;;;;;;5053583;28;20064;-77
2022/04/19 02:29:44;;;;;;;;;;;153.80;2176.00;;;;;;5055917;28;20476;-77
2022/04/19 02:32:10;;;;;;;28.30;16.00;;;128.90;2227.20;;;;;;5053638;28;19905;-76
2022/04/19 02:34:35;;;;;;;;;;;128.80;2252.80;;;;;;5054581;28;20029;-77
2022/04/19 02:37:01;;;;;;;29.85;14.90;;;128.80;2252.80;;;;;;5054288;28;20349;-77
2022/04/19 02:39:28;;;;;;;;;;;128.60;2252.80;;;;;;5055502;28;20075;-77
2022/04/19 02:41:54;;;;;;;25.52;12.32;;;128.70;2252.80;;;;;;5053741;28;19934;-77
2022/04/19 02:44:19;;;;;;;;;;;128.40;2252.80;;;;;;5054089;28;20059;-77
2022/04/19 02:46:45;;;;;;;32.67;15.32;;;128.40;2252.80;;;;;;5054934;28;19905;-77
2022/04/19 02:49:11;;;;;;;;;;;128.30;2252.80;;;;;;5053460;28;20032;-77
2022/04/19 02:51:37;;;;;;;25.38;14.02;;;128.20;2252.80;;;;;;5051852;28;20280;-77
2022/04/19 02:54:02;;;;;;;;;;;128.00;2252.80;;;;;;5053297;28;20056;-77
2022/04/19 02:56:28;;;;;;;28.98;14.30;;;128.10;2252.80;;;;;;5054944;28;20422;-77
2022/04/19 02:58:54;;;;;;;;;;;128.10;2252.80;;;;;;5055029;28;20066;-77
2022/04/19 03:01:19;;;;;;;34.45;15.88;;;128.20;2252.80;;;;;;5054732;28;20276;-77
2022/04/19 03:03:45;;;;;;;;;;;128.20;2252.80;;;;;;5054858;28;20020;-77
2022/04/19 03:06:11;;;;;;;28.33;15.05;;;128.10;2252.80;;;;;;5054922;28;19908;-77
2022/04/19 03:08:36;;;;;;;;;;;128.00;2252.80;;;;;;5054938;28;20533;-77
2022/04/19 03:11:03;;;;;;;30.00;14.57;;;128.00;2252.80;;;;;;5053291;28;20357;-77
2022/04/19 03:13:31;;;;;;;27.73;14.43;;;128.00;2252.80;;;;;;5053180;28;20017;-77
2022/04/19 03:15:57;;;;;;;29.88;14.75;;;128.00;2252.80;;;;;;5053615;28;20017;-77
2022/04/19 03:18:23;;;;;;;;;;;103.30;2227.20;;;;;;5053708;28;20044;-76
2022/04/19 03:20:48;;;;;;;27.75;14.38;;;103.30;2227.20;;;;;;5054686;28;19951;-77
2022/04/19 03:28:45;;;;;;;33.15;16.67;;;103.30;2227.20;;;;;;5054013;28;20063;-77
2022/04/19 03:31:12;;;;;;;31.25;16.27;;;103.30;2227.20;;;;;;5053182;28;20021;-77
2022/04/19 03:33:39;;;;;;;33.38;17.90;;;103.20;2227.20;;;;;;5052648;28;20021;-77
2022/04/19 03:36:08;;;;;;;37.45;18.75;;;103.20;2227.20;;;;;;5054080;28;20032;-77
2022/04/19 03:38:37;;;;;;;32.67;18.13;;;103.20;2227.20;;;;;;5052502;28;20036;-77
2022/04/19 03:41:03;;;;;;;33.10;17.30;;;103.30;2227.20;;;;;;5050278;28;20082;-77
2022/04/19 03:43:28;;;;;;;;;;;103.20;2227.20;;;;;;5054525;28;20059;-77
2022/04/19 03:45:54;;;;;;;31.38;17.60;;;103.30;2227.20;;;;;;5048208;28;20338;-77
2022/04/19 03:48:20;;;;;;;;;;;103.20;2227.20;;;;;;5044577;28;20033;-77
2022/04/19 03:50:45;;;;;;;35.40;16.67;;;103.30;2227.20;;;;;;5052177;28;19911;-77
2022/04/19 03:53:11;;;;;;;;;;;128.00;2252.80;;;;;;5053164;28;20033;-77
2022/04/19 03:55:37;;;;;;;40.25;18.85;;;128.10;2252.80;;;;;;5051868;28;19912;-77
2022/04/19 03:58:03;;;;;;;;;;;128.20;2252.80;;;;;;5054138;28;20147;-77
2022/04/19 04:00:29;;;;;;;42.92;21.35;;;128.10;2252.80;;;;;;5052805;28;19920;-76
2022/04/19 04:02:55;;;;;;;39.80;20.58;;;128.10;2252.80;;;;;;5054294;28;20028;-79
2022/04/19 04:05:24;;;;;;;;;;;128.10;2252.80;;;;;;5050242;28;20392;-77
2022/04/19 04:07:50;;;;;;;37.03;20.75;;;128.20;2252.80;;;;;;5051846;28;19958;-77
2022/04/19 04:10:16;;;;;;;39.72;19.55;;;128.00;2252.80;;;;;;5052087;28;20031;-77
2022/04/19 04:12:41;;;;;;;;;;;128.00;2252.80;;;;;;5053833;28;20032;-77
2022/04/19 04:15:08;;;;;;;38.38;19.50;;;128.20;2252.80;;;;;;5052078;28;19904;-76
2022/04/19 04:17:33;;;;;;;;;;;128.10;2252.80;;;;;;5052423;28;20017;-77
2022/04/19 04:19:59;;;;;;;37.15;19.92;;;128.10;2252.80;;;;;;5051605;28;19904;-77
2022/04/19 04:22:25;;;;;;;;;;;128.10;2252.80;;;;;;5052570;28;20082;-77
2022/04/19 04:24:51;;;;;;;42.90;18.75;;;128.10;2252.80;;;;;;5053185;28;20000;-77
2022/04/19 04:27:16;;;;;;;;;;;128.20;2252.80;;;;;;5051093;28;20126;-77
2022/04/19 04:29:42;;;;;;;36.17;18.20;;;128.30;2252.80;;;;;;5051801;28;19943;-77
2022/04/19 04:32:07;;;;;;;;;;;128.30;2252.80;;;;;;5053572;28;20028;-77
2022/04/19 04:34:33;;;;;;;40.78;20.48;;;128.40;2252.80;;;;;;5052748;28;20395;-77
2022/04/19 04:36:59;;;;;;;;;;;128.50;2252.80;;;;;;5052516;28;20033;-78
2022/04/19 04:39:24;;;;;;;32.85;17.35;;;128.60;2252.80;;;;;;5051593;28;20027;-77
2022/04/19 04:41:50;;;;;;;;;;;128.80;2252.80;;;;;;5053285;28;20021;-77
2022/04/19 04:44:15;;;;;;;37.65;15.60;;;128.80;2252.80;;;;;;5052023;28;20344;-78
2022/04/19 04:49:36;;;;;;;31.40;16.05;;;128.90;2252.80;;;;;;5050782;28;19986;-78
2022/04/19 04:52:07;;;;;;;26.70;14.43;;;153.60;2252.80;;;;;;5048487;28;20036;-78
2022/04/19 04:54:34;;;;;;;27.70;16.23;;;153.80;2252.80;;;;;;5051882;28;20401;-77
2022/04/19 04:57:00;;;;;;;33.42;16.95;;;153.60;2252.80;;;;;;5051372;28;20053;-78
2022/04/19 04:59:26;;;;;;;29.30;16.10;;;153.90;2252.80;;;;;;5051654;28;20583;-77
2022/04/19 05:01:52;;;;;;;;;;;153.90;2252.80;;;;;;5051586;28;20119;-77
2022/04/19 05:04:18;;;;;;;28.20;16.58;;;154.00;2252.80;;;;;;5051182;28;20368;-76
2022/04/19 05:06:44;;;;;;;;;;;154.10;2252.80;;;;;;5049953;28;20110;-74
2022/04/19 05:09:09;;;;;;;32.72;17.15;;;154.10;2252.80;;;;;;5050670;28;19904;-76
2022/04/19 05:11:35;;;;;;;;;;;154.30;2252.80;;;;;;5051950;28;20025;-77
2022/04/19 05:14:01;;;;;;;27.95;13.95;;;154.40;2252.80;;;;;;5051030;28;19905;-75
2022/04/19 05:16:27;;;;;;;30.58;14.18;;;154.30;2252.80;;;;;;5050893;28;20147;-75
2022/04/19 05:18:53;;;;;;;;;;;154.40;2252.80;;;;;;5051130;28;20116;-75
2022/04/19 05:21:18;;;;;;;30.70;15.85;;;154.30;2252.80;;;;;;5050795;28;20349;-75
2022/04/19 05:23:44;;;;;;;;;;;154.40;2252.80;;;;;;5052237;28;20096;-78
2022/04/19 05:26:10;;;;;;;25.85;13.82;;;154.40;2252.80;;;;;;5051760;28;19982;-75
2022/04/19 05:28:35;;;;;;;;;;;154.30;2252.80;;;;;;5050855;28;20120;-78
2022/04/19 05:31:01;;;;;;;23.42;14.73;;;154.40;2252.80;;;;;;5050824;28;19915;-76
2022/04/19 05:33:27;;;;;;;;;;;154.40;2252.80;;;;;;5052483;28;20036;-77
2022/04/19 05:35:52;;;;;;;31.40;14.27;;;154.50;2252.80;;;;;;5051071;28;19905;-76
2022/04/19 05:38:18;;;;;;;;;;;179.20;2252.80;;;;;;5052286;28;20098;-78
2022/04/19 05:40:44;;;;;;;23.58;13.82;;;179.30;2252.80;;;;;;5050797;28;20335;-77
2022/04/19 05:43:09;;;;;;;;;;;179.30;2252.80;;;;;;5051901;28;20033;-77
2022/04/19 05:45:35;;;;;;;21.33;12.80;;;179.40;2252.80;;;;;;5051048;28;19931;-77
2022/04/19 05:48:00;;;;;;;;;;;179.40;2252.80;;;;;;5051347;28;20068;-77
2022/04/19 05:50:26;;;;;;;19.88;12.65;;;179.60;2252.80;;;;;;5050812;28;19905;-76
2022/04/19 05:52:52;;;;;;;;;;;179.60;2252.80;;;;;;5051689;28;20029;-77
2022/04/19 05:55:17;;;;;;;22.42;12.18;;;179.70;2252.80;;;;;;5050897;28;19931;-76
2022/04/19 05:57:43;;;;;;;;;;;179.80;2252.80;;;;;;5051170;28;20029;-77
2022/04/19 06:00:09;;;;;;;19.27;11.93;;;179.90;2252.80;;;;;;5050720;28;19915;-77
2022/04/19 06:05:19;;;;;;;18.00;10.43;;;204.80;2252.80;;;;;;5052376;28;20038;-77
2022/04/19 06:07:48;;;;;;;;;;;204.80;2252.80;;;;;;5050603;28;20151;-77
2022/04/19 06:10:15;;;;;;;19.00;10.85;;;204.90;2252.80;;;;;;5051321;28;19916;-77
2022/04/19 06:12:41;;;;;;;20.33;13.02;;;205.00;2252.80;;;;;;5050016;28;20048;-77
2022/04/19 06:15:07;;;;;;;15.20;10.40;;;204.80;2252.80;;;;;;5050626;28;20024;-77
2022/04/19 06:17:35;;;;;;;15.88;9.70;;;205.20;2252.80;;;;;;5050371;28;20075;-77
2022/04/19 06:20:02;;;;;;;20.02;10.98;;;205.20;2252.80;;;;;;5050640;28;20481;-77
2022/04/19 06:22:28;;;;;;;18.55;10.43;;;205.30;2252.80;;;;;;5050783;28;20028;-77
2022/04/19 06:24:55;;;;;;;;;;;205.30;2201.60;;;;;;5051141;28;20025;-78
2022/04/19 06:27:21;;;;;;;15.00;9.45;;;205.40;2150.40;;;;;;5050414;28;19945;-77
2022/04/19 06:29:47;;;;;;;17.08;9.77;;;205.60;2176.00;;;;;;5051977;28;20450;-77
2022/04/19 06:32:13;;;;;;;;;;;205.70;2176.00;;;;;;5052355;28;20060;-77
2022/04/19 06:34:40;;;;;;;19.27;9.63;;;230.50;2201.60;;;;;;5050456;28;20300;-77
2022/04/19 06:37:05;;;;;;;15.38;9.77;;;230.60;2150.40;;;;;;5050609;28;20079;-77
2022/04/19 06:39:31;;;;;;;;;;;230.70;2124.80;;;;;;5051830;28;20021;-76
2022/04/19 06:41:57;;;;;;;15.93;9.02;;;230.80;2124.80;;;;;;5051496;28;20277;-77
2022/04/19 06:44:22;;;;;;;;;;;231.00;2099.20;;;;;;5051957;28;20025;-77
2022/04/19 06:46:49;;;;;;;15.27;8.30;;;231.10;2073.60;;;;;;5050247;28;20355;-77
2022/04/19 06:49:16;;;;;;;15.55;8.30;;;231.10;2022.40;;;;;;5050476;28;20045;-77
2022/04/19 06:51:42;;;;;;;17.15;8.68;;;231.30;2022.40;;;;;;5052040;28;20029;-76
2022/04/19 06:54:09;;;;;;;16.17;8.73;;;256.00;2048.00;;;;;;5054150;28;20370;-78
2022/04/19 06:56:35;;;;;;;13.70;8.05;;;256.10;2048.00;;;;;;5053694;28;20385;-76
2022/04/19 06:59:01;;;;;;;9.95;6.40;;;256.50;1945.60;;;;;;5053863;28;20025;-76
2022/04/19 07:01:27;;;;;;;11.65;6.55;;;256.40;1920.00;;;;;;5053606;28;20033;-76
2022/04/19 07:03:53;;;;;;;8.55;5.05;;;256.50;1868.80;;;;;;5053923;28;20055;-77
2022/04/19 07:06:19;;;;;;;7.82;5.75;;;256.60;1792.00;;;;;;5055103;28;20025;-78
2022/04/19 07:08:45;;;;;;;9.70;4.75;;;256.70;1715.20;;;;;;5053836;28;20086;-77
2022/04/19 07:11:12;;;;;;;;;;;256.90;1740.80;;;;;;5068189;28;20028;-77
2022/04/19 07:13:39;;;;;;;7.25;4.70;;;281.60;1740.80;;;;;;5068930;28;19996;-77
2022/04/19 07:16:08;;;;;;;9.52;4.63;;;281.80;1715.20;;;;;;5061431;28;20029;-77
2022/04/19 07:18:34;;;;;;;7.85;3.75;;;281.80;1689.60;;;;;;5054624;28;20021;-77
2022/04/19 07:26:47;;;;;;;5.93;3.55;;;282.20;1587.20;;;;;;5054358;28;20103;-78
2022/04/19 07:29:15;;;;;;;8.52;4.07;;;282.30;1536.00;;;;;;5053040;28;20421;-77
2022/04/19 07:31:46;;;;;;;10.38;4.93;;;282.50;1510.40;;;;;;5053779;28;20539;-79
2022/04/19 07:34:13;;;;;;;9.43;4.35;;;307.30;1536.00;;;;;;5053004;28;20047;-79
2022/04/19 07:36:42;;;;;;;10.38;4.53;;;307.40;1536.00;;;;;;5053245;28;20075;-78
2022/04/19 07:39:09;;;;;;;8.38;4.82;;;307.50;1484.80;;;;;;5053278;28;20028;-80
2022/04/19 07:41:35;;;;;;;8.00;4.85;;;307.50;1484.80;;;;;;5053382;28;20025;-78
2022/04/19 07:44:10;;;;;;;8.00;4.47;;;307.40;1484.80;;;;;;5053322;28;20466;-79
2022/04/19 07:46:36;;;;;;;10.23;4.82;;;307.60;1484.80;;;;;;5052704;28;20040;-79
2022/04/19 07:49:03;;;;;;;10.10;6.05;;;307.60;1484.80;;;;;;5053508;28;20040;-78
2022/04/19 07:51:29;;;;;;;10.80;6.05;;;307.70;1536.00;;;;;;5052758;28;20025;-79
2022/04/19 07:53:55;;;;;;;11.90;6.80;;;307.60;1484.80;;;;;;5053378;28;20082;-79
2022/04/19 07:56:22;;;;;;;12.90;8.00;;;307.50;1510.40;;;;;;5053226;28;20120;-79
2022/04/19 07:58:49;;;;;;;10.82;5.82;;;307.80;1536.00;;;;;;5053608;28;20029;-79
2022/04/19 08:01:15;;;;;;;9.65;4.60;;;307.60;1484.80;;;;;;5053245;28;20093;-78
2022/04/19 08:03:41;;;;;;;8.88;4.50;;;307.80;1459.20;;;;;;5052988;28;20128;-79
2022/04/19 08:06:08;;;;;;;11.35;4.28;;;308.00;1433.60;;;;;;5052437;28;20029;-81
2022/04/19 08:08:35;;;;;;;9.45;3.40;;;307.80;1433.60;;;;;;5052727;28;20040;-79
2022/04/19 08:11:01;;;;;;;6.75;3.63;;;307.80;1356.80;;;;;;5052731;28;20017;-78
2022/04/19 08:13:26;;;;;;;8.52;3.90;;;307.80;1331.20;;;;;;5052703;28;20070;-79
2022/04/19 08:15:52;;;;;;;5.55;3.13;;;307.90;1356.80;;;;;;5053283;28;20048;-79
2022/04/19 08:18:19;;;;;;;;;;;307.90;1331.20;;;;;;5053124;28;20056;-80
2022/04/19 08:20:45;;;;;;;4.65;3.10;;;307.80;1331.20;;;;;;5053953;28;19912;-78
2022/04/19 08:23:12;;;;;;;4.43;3.03;;;307.70;1305.60;;;;;;5053658;28;20473;-78
2022/04/19 08:25:39;;;;;;;7.38;5.10;;;307.60;1331.20;;;;;;5052311;28;20028;-78
2022/04/19 08:28:06;;;;;;;7.78;4.97;;;307.60;1356.80;;;;;;5053495;28;20041;-77
2022/04/19 08:30:32;;;;;;;7.93;3.30;;;307.60;1356.80;;;;;;5052293;28;20021;-78
2022/04/19 08:32:58;;;;;;;6.57;3.17;;;307.80;1356.80;;;;;;5053072;28;20094;-79
2022/04/19 08:35:24;;;;;;;10.52;5.20;;;307.80;1408.00;;;;;;5052467;28;20119;-79
2022/04/19 08:37:50;;;;;;;12.50;4.85;;;307.90;1408.00;;;;;;5052523;28;20028;-77
2022/04/19 08:40:17;;;;;;;5.65;3.45;;;307.90;1408.00;;;;;;5051953;28;20388;-78
2022/04/19 08:42:44;;;;;;;8.45;3.83;;;307.80;1408.00;;;;;;5051955;28;20032;-77
2022/04/19 08:45:13;;;;;;;8.15;3.97;;;308.00;1408.00;;;;;;5051100;28;20028;-77
2022/04/19 08:47:40;;;;;;;8.30;4.75;;;308.00;1408.00;;;;;;5052667;28;20025;-78
2022/04/19 08:50:10;;;;;;;7.18;4.28;;;308.00;1382.40;;;;;;5051586;28;20123;-78
2022/04/19 08:52:36;;;;;;;6.82;4.57;;;332.80;1433.60;;;;;;5051815;28;20028;-78
2022/04/19 08:57:46;;;;;;;5.00;3.65;;;332.80;1433.60;;;;;;5051372;28;20036;-78
2022/04/19 09:00:13;;;;;;;10.60;6.22;;;332.80;1433.60;;;;;;5051272;28;20033;-78
2022/04/19 09:02:38;;;;;;;8.75;6.43;;;332.90;1433.60;;;;;;5051078;28;20025;-78
2022/04/19 09:05:14;;;;;;;8.88;5.60;;;333.00;1408.00;;;;;;5051119;28;20044;-79
2022/04/19 09:07:41;;;;;;;10.15;4.90;;;332.90;1408.00;;;;;;5049253;28;20112;-78
2022/04/19 09:10:11;;;;;;;9.35;4.30;;;332.90;1433.60;;;;;;5050941;28;20036;-78
2022/04/19 09:12:37;;;;;;;10.20;6.15;;;332.80;1433.60;;;;;;5048757;28;20017;-79
2022/04/19 09:15:06;;;;;;;7.85;4.70;;;333.00;1408.00;;;;;;5050717;28;20488;-76
2022/04/19 09:17:35;;;;;;;9.55;5.03;;;333.10;1433.60;;;;;;5051650;28;20054;-78
2022/04/19 09:20:15;;;;;;;8.70;5.53;;;333.30;1382.40;;;;;;5052523;28;20029;-77
2022/04/19 09:22:43;;;;;;;11.30;4.82;;;333.40;1382.40;;;;;;5052348;28;20502;-77
2022/04/19 09:25:24;;;;;;;7.35;4.80;;;333.40;1382.40;;;;;;5051548;28;20420;-77
2022/04/19 09:27:50;;;;;;;7.70;4.38;;;333.40;1356.80;;;;;;5052295;28;20051;-78
2022/04/19 09:30:22;;;;;;;9.57;5.13;;;333.50;1356.80;;;;;;5051870;28;20052;-78
2022/04/19 09:33:02;;;;;;;10.20;4.50;;;333.70;1382.40;;;;;;5051311;28;20112;-78
2022/04/19 09:35:32;;;;;;;6.60;4.40;;;333.40;1382.40;;;;;;5051146;28;20024;-78
2022/04/19 09:37:57;;;;;;;6.30;4.50;;;333.60;1356.80;;;;;;5051245;28;20021;-78
2022/04/19 09:40:32;;;;;;;5.90;4.22;;;333.70;1331.20;;;;;;5051141;28;20021;-77
2022/04/19 09:43:08;;;;;;;6.40;4.68;;;358.50;1305.60;;;;;;5051174;28;20481;-79
2022/04/19 09:46:05;;;;;;;23.55;8.52;;;333.70;1280.00;;;;;;5051384;28;20017;-78
2022/04/19 09:48:39;;;;;;;9.48;4.38;;;333.70;1305.60;;;;;;5050838;28;20493;-80
2022/04/19 09:51:08;;;;;;;7.45;4.25;;;333.50;1331.20;;;;;;5050928;28;20017;-78
2022/04/19 09:53:47;;;;;;;6.43;3.72;;;333.50;1356.80;;;;;;5051207;28;20057;-78
2022/04/19 09:56:23;;;;;;;13.30;5.00;;;333.50;1408.00;;;;;;5050889;28;20037;-78
2022/04/19 09:58:51;;;;;;;8.32;4.70;;;333.50;1382.40;;;;;;5051326;28;20602;-79
2022/04/19 10:09:36;;;;;;;19.25;6.28;;;333.30;1356.80;;;;;;5052108;28;20473;-77
2022/04/19 10:12:07;;;;;;;7.93;4.78;;;333.30;1382.40;;;;;;5050872;28;20033;-77
2022/04/19 10:14:35;;;;;;;9.90;5.60;;;333.20;1356.80;;;;;;5051460;28;20556;-77
2022/04/19 10:17:03;;;;;;;9.73;4.90;;;333.10;1356.80;;;;;;5052040;28;20021;-77
2022/04/19 10:19:30;;;;;;;11.55;4.97;;;333.00;1382.40;;;;;;5049592;28;20120;-76
2022/04/19 10:21:59;;;;;;;11.25;5.03;;;332.90;1382.40;;;;;;5050917;28;20435;-76
2022/04/19 10:24:28;;;;;;;7.18;4.57;;;332.90;1459.20;;;;;;5050187;28;20076;-75
2022/04/19 10:26:54;;;;;;;9.55;4.47;;;332.80;1459.20;;;;;;5052011;28;20049;-77
2022/04/19 10:29:25;;;;;;;5.93;3.88;;;308.00;1536.00;;;;;;5053621;28;20037;-75
2022/04/19 10:32:04;;;;;;;8.27;4.22;;;307.90;1561.60;;;;;;5053700;28;20511;-76
2022/04/19 10:34:34;;;;;;;7.53;5.10;;;307.80;1561.60;;;;;;5052868;28;20057;-77
2022/04/19 10:37:15;;;;;;;6.38;3.78;;;307.80;1536.00;;;;;;5051337;28;20595;-77
2022/04/19 10:39:49;;;;;;;5.53;4.20;;;307.80;1561.60;;;;;;5034145;28;20124;-76
2022/04/19 10:42:36;;;;;;;13.00;6.18;;;307.80;1561.60;;;;;;5035513;28;20052;-75
2022/04/19 10:45:14;;;;;;;;;;;307.90;1536.00;;;;;;5034756;28;20544;-77
2022/04/19 10:48:10;;;;;;;6.20;4.03;;;307.90;1510.40;;;;;;5067047;28;19909;-76
2022/04/19 10:50:44;;;;;;;11.00;4.15;;;308.00;1484.80;;;;;;4996957;28;20469;-77
2022/04/19 10:53:13;;;;;;;5.75;3.55;;;308.10;1459.20;;;;;;4996705;28;20548;-77
2022/04/19 10:55:40;;;;;;;6.82;3.83;;;332.80;1484.80;;;;;;5020495;28;20052;-75
2022/04/19 10:58:17;;;;;;;7.53;3.92;;;332.80;1459.20;;;;;;5008798;28;20411;-76
2022/04/19 11:01:00;;;;;;;6.45;3.00;;;332.90;1459.20;;;;;;5001223;28;20080;-76
2022/04/19 11:03:25;;;;;;;5.65;4.00;;;333.20;1408.00;;;;;;4996468;28;20034;-75
2022/04/19 11:05:53;;;;;;;5.75;3.53;;;333.50;1382.40;;;;;;4996692;28;20018;-77
2022/04/19 11:08:24;;;;;;;5.90;3.95;;;333.70;1356.80;;;;;;5012510;28;20509;-76
2022/04/19 11:11:20;;;;;;;10.63;4.25;;;358.70;1382.40;;;;;;5013650;28;20458;-74
2022/04/19 11:14:20;;;;;;;6.70;3.28;;;359.00;1331.20;;;;;;5028419;28;20486;-75
2022/04/19 11:16:50;;;;;;;11.13;5.03;;;359.20;1356.80;;;;;;5048967;28;20021;-74
2022/04/19 11:19:21;;;;;;;6.03;3.85;;;384.00;1305.60;;;;;;5015653;28;20021;-75
2022/04/19 11:21:59;;;;;;;7.90;4.40;;;384.00;1254.40;;;;;;5015916;28;20030;-75
2022/04/19 11:25:03;;;;;;;8.80;3.42;;;384.00;1254.40;;;;;;5015724;28;20026;-75
2022/04/19 11:27:52;;;;;;;6.05;3.25;;;359.10;1254.40;;;;;;5026774;28;20046;-75
2022/04/19 11:30:18;;;;;;;8.40;4.40;;;359.00;1280.00;;;;;;5012224;28;20513;-75
2022/04/19 11:32:55;;;;;;;5.30;3.47;;;359.20;1280.00;;;;;;4996103;28;20406;-75
2022/04/19 11:35:21;;;;;;;7.65;3.85;;;359.30;1305.60;;;;;;5012286;28;20030;-74
2022/04/19 11:37:48;;;;;;;7.25;3.92;;;384.00;1305.60;;;;;;5011884;28;20390;-74
2022/04/19 11:48:44;;;;;;;5.68;3.58;;;409.60;1228.80;;;;;;5012372;28;20048;-74
2022/04/19 11:51:12;;;;;;;7.00;4.13;;;409.80;1203.20;;;;;;4995589;28;20033;-77
2022/04/19 11:53:39;;;;;;;8.23;4.30;;;409.70;1203.20;;;;;;5012133;28;20133;-74
2022/04/19 11:56:06;;;;;;;6.57;4.25;;;409.80;1177.60;;;;;;5011737;28;20026;-74
2022/04/19 11:58:33;;;;;;;5.80;3.90;;;409.90;1177.60;;;;;;5011867;28;20030;-75
2022/04/19 12:01:03;;;;;;;6.65;4.05;;;410.20;1177.60;;;;;;4995511;28;20026;-74
2022/04/19 12:03:32;;;;;;;9.60;5.13;;;410.30;1152.00;;;;;;4995446;28;20022;-76
2022/04/19 12:06:24;;;;;;;8.77;4.57;;;410.10;1177.60;;;;;;4995517;28;20501;-75
2022/04/19 12:08:52;;;;;;;5.05;3.85;;;410.30;1152.00;;;;;;5032473;28;20080;-75
2022/04/19 12:11:28;;;;;;;8.25;3.55;;;410.10;1177.60;;;;;;5033543;28;20022;-75
2022/04/19 12:13:54;;;;;;;8.18;3.97;;;410.10;1152.00;;;;;;5033723;28;20028;-75
2022/04/19 12:16:26;;;;;;;10.43;5.57;;;410.20;1152.00;;;;;;5033371;28;20170;-76
2022/04/19 12:18:54;;;;;;;6.20;4.13;;;410.50;1126.40;;;;;;5033556;28;20021;-75
2022/04/19 12:21:38;;;;;;;9.60;4.57;;;410.20;1152.00;;;;;;5032112;28;20097;-76
2022/04/19 12:24:28;;;;;;;7.50;3.85;;;410.50;1126.40;;;;;;5033062;28;20462;-75
2022/04/19 12:27:05;;;;;;;5.50;3.90;;;410.50;1126.40;;;;;;5031822;28;20054;-76
2022/04/19 12:29:31;;;;;;;14.60;4.53;;;435.30;1126.40;;;;;;5033247;28;20033;-75
2022/04/19 12:31:58;;;;;;;7.57;4.13;;;410.50;1126.40;;;;;;5033282;28;20025;-76
2022/04/19 12:34:33;;;;;;;8.07;4.22;;;410.30;1126.40;;;;;;5033088;28;20448;-75
2022/04/19 12:37:06;;;;;;;6.33;3.73;;;410.20;1177.60;;;;;;5031929;28;20044;-76
2022/04/19 12:39:32;;;;;;;5.55;3.90;;;410.50;1100.80;;;;;;5031555;28;20033;-76
2022/04/19 12:42:09;;;;;;;6.30;4.07;;;435.40;1100.80;;;;;;5035189;28;20473;-75
2022/04/19 12:44:37;;;;;;;7.57;4.28;;;435.20;1075.20;;;;;;5049624;28;20024;-75
2022/04/19 12:47:18;;;;;;;6.68;3.78;;;410.50;1075.20;;;;;;5051486;28;20083;-75
2022/04/19 12:49:45;;;;;;;6.78;4.15;;;435.40;1100.80;;;;;;5049602;28;20067;-75
2022/04/19 12:52:12;;;;;;;6.50;4.32;;;435.30;1075.20;;;;;;5049500;28;20032;-75
2022/04/19 12:54:50;;;;;;;8.35;3.97;;;435.30;1126.40;;;;;;5052399;28;20519;-76
2022/04/19 12:57:23;;;;;;;5.97;3.67;;;435.50;1075.20;;;;;;5044488;28;20496;-75
2022/04/19 12:59:50;;;;;;;8.13;3.78;;;435.70;1075.20;;;;;;5052876;28;20052;-74
2022/04/19 13:02:18;;;;;;;7.18;3.90;;;435.70;1075.20;;;;;;5052364;28;20025;-75
2022/04/19 13:04:48;;;;;;;8.48;3.83;;;435.70;1049.60;;;;;;5051206;28;20088;-75
2022/04/19 13:12:44;;;;;;;8.95;3.65;;;410.10;1126.40;;;;;;5051433;28;20036;-75